Time;durP1;ratioP1;P1;durP2;ratioP2;P2;SDS_P1;SDS_P2;PMS_P1;PMS_P2;Temp;Humidity;BMP_temperature;BMP_pressure;BME280_temperature;BME280_humidity;BME280_pressure;Samples;Min_cycle;Max_cycle;Signal;HPM_P1;HPM_P2
2022/07/11 00:00:05;;;;;;;7.43;1.30;;;12.60;99.90;;;;;;5111976;28;20809;-75
2022/07/11 00:02:31;;;;;;;1.90;0.70;;;12.60;99.90;;;;;;5110923;28;20425;-76
2022/07/11 00:04:57;;;;;;;2.13;0.73;;;12.60;99.90;;;;;;5092584;28;20806;-76
2022/07/11 00:07:22;;;;;;;6.30;0.97;;;12.60;99.90;;;;;;5105960;28;20242;-75
2022/07/11 00:09:48;;;;;;;8.50;1.03;;;12.70;99.90;;;;;;5109325;28;20200;-76
2022/07/11 00:12:14;;;;;;;2.00;1.00;;;12.60;99.90;;;;;;5103134;28;20215;-76
2022/07/11 00:14:41;;;;;;;2.17;1.03;;;12.70;99.90;;;;;;5109614;28;20610;-75
2022/07/11 00:17:08;;;;;;;1.73;0.97;;;12.70;99.90;;;;;;5092881;28;20434;-76
2022/07/11 00:19:35;;;;;;;1.70;0.80;;;12.70;99.90;;;;;;5092266;28;20442;-76
2022/07/11 00:22:00;;;;;;;1.50;0.73;;;12.70;99.90;;;;;;5098816;28;20751;-76
2022/07/11 00:24:26;;;;;;;1.50;0.70;;;12.70;99.90;;;;;;5123181;28;20426;-76
2022/07/11 00:26:52;;;;;;;4.90;1.40;;;12.70;99.90;;;;;;5117146;27;20215;-76
2022/07/11 00:29:17;;;;;;;5.77;1.10;;;12.70;99.90;;;;;;5112875;28;20206;-76
2022/07/11 00:31:43;;;;;;;1.70;0.90;;;12.80;99.90;;;;;;5122252;27;20191;-76
2022/07/11 00:34:09;;;;;;;1.70;0.80;;;12.80;99.90;;;;;;5111468;27;20206;-75
2022/07/11 00:36:35;;;;;;;3.10;0.90;;;12.80;99.90;;;;;;5115824;28;20187;-75
2022/07/11 00:39:01;;;;;;;1.70;0.80;;;12.80;99.90;;;;;;5117211;28;20232;-75
2022/07/11 00:41:26;;;;;;;2.77;1.10;;;12.80;99.90;;;;;;5104986;28;20636;-75
2022/07/11 00:43:58;;;;;;;2.77;0.93;;;12.90;99.90;;;;;;5116980;28;20236;-75
2022/07/11 00:46:24;;;;;;;1.80;0.87;;;12.90;99.90;;;;;;5108579;27;20704;-75
2022/07/11 00:48:51;;;;;;;7.43;0.87;;;12.90;99.90;;;;;;5129760;27;20456;-76
2022/07/11 00:51:21;;;;;;;1.53;0.70;;;12.90;99.90;;;;;;5116322;28;20511;-76
2022/07/11 00:53:49;;;;;;;1.60;0.80;;;13.00;99.90;;;;;;5116705;28;20449;-76
2022/07/11 00:56:15;;;;;;;3.10;1.33;;;13.00;99.90;;;;;;5130695;27;20460;-76
2022/07/11 00:58:41;;;;;;;2.10;1.27;;;13.00;99.90;;;;;;5136900;27;20970;-76
2022/07/11 01:01:07;;;;;;;5.00;1.00;;;13.10;99.90;;;;;;5122398;27;20489;-76
2022/07/11 01:03:39;;;;;;;1.70;1.00;;;13.10;99.90;;;;;;5109514;27;20455;-76
2022/07/11 01:06:06;;;;;;;2.30;0.80;;;13.10;99.90;;;;;;5133393;27;20420;-76
2022/07/11 01:08:35;;;;;;;2.40;0.90;;;13.20;99.90;;;;;;5118003;27;20417;-77
2022/07/11 01:11:03;;;;;;;2.93;1.00;;;13.10;99.90;;;;;;5136282;27;20898;-76
2022/07/11 01:13:30;;;;;;;1.70;1.00;;;13.10;99.90;;;;;;5122063;27;20456;-78
2022/07/11 01:16:14;;;;;;;3.30;0.80;;;13.20;99.90;;;;;;5108726;27;20411;-75
2022/07/11 01:18:47;;;;;;;3.60;1.00;;;13.20;99.90;;;;;;5126228;27;20419;-76
2022/07/11 01:21:22;;;;;;;1.80;0.90;;;13.30;99.90;;;;;;5115822;28;20421;-75
2022/07/11 01:23:49;;;;;;;1.73;1.00;;;13.40;99.90;;;;;;5132544;27;20412;-77
2022/07/11 01:26:16;;;;;;;2.37;1.40;;;13.40;99.90;;;;;;5128441;27;20448;-77
2022/07/11 01:28:42;;;;;;;5.30;1.33;;;13.50;99.90;;;;;;5114193;27;20420;-75
2022/07/11 01:31:07;;;;;;;2.80;1.20;;;13.50;99.90;;;;;;5130930;27;20768;-76
2022/07/11 01:33:33;;;;;;;1.93;0.93;;;13.50;99.90;;;;;;5107701;27;20457;-75
2022/07/11 01:36:02;;;;;;;4.80;1.07;;;13.50;99.90;;;;;;5124660;27;20177;-76
2022/07/11 01:38:28;;;;;;;2.17;1.10;;;13.60;99.90;;;;;;5106726;28;20172;-76
2022/07/11 01:40:54;;;;;;;4.70;1.63;;;13.60;99.90;;;;;;5117128;27;20445;-76
2022/07/11 01:43:20;;;;;;;1.50;0.73;;;13.60;99.90;;;;;;5135211;27;20411;-76
2022/07/11 01:45:46;;;;;;;3.73;1.23;;;13.60;99.90;;;;;;5122482;27;20512;-76
2022/07/11 01:48:11;;;;;;;2.57;1.27;;;13.60;99.90;;;;;;5134508;27;20266;-76
2022/07/11 01:50:37;;;;;;;2.73;1.23;;;13.60;99.90;;;;;;5134376;27;20183;-76
2022/07/11 01:53:03;;;;;;;3.43;1.17;;;13.60;99.90;;;;;;5115804;27;20509;-76
2022/07/11 01:55:28;;;;;;;2.20;1.33;;;13.60;99.90;;;;;;5103890;28;20214;-76
2022/07/11 01:57:54;;;;;;;2.20;1.17;;;13.60;99.90;;;;;;5111005;27;20561;-76
2022/07/11 02:00:20;;;;;;;6.07;1.17;;;13.60;99.90;;;;;;5108558;27;20572;-76
2022/07/11 02:02:46;;;;;;;2.77;1.53;;;13.60;99.90;;;;;;5135548;27;20175;-76
2022/07/11 02:05:11;;;;;;;2.70;1.60;;;13.60;99.90;;;;;;5115047;28;20196;-76
2022/07/11 02:10:35;;;;;;;2.47;1.00;;;13.50;99.90;;;;;;5066960;27;20188;-76
2022/07/11 02:13:00;;;;;;;2.60;1.53;;;13.50;99.90;;;;;;5121655;27;21086;-77
2022/07/11 02:15:27;;;;;;;2.97;0.80;;;13.50;99.90;;;;;;5121185;27;20208;-76
2022/07/11 02:17:53;;;;;;;2.07;1.33;;;13.40;99.90;;;;;;5136070;27;20187;-76
2022/07/11 02:20:20;;;;;;;3.20;1.43;;;13.40;99.90;;;;;;5120087;27;20445;-76
2022/07/11 02:22:46;;;;;;;2.00;1.13;;;13.40;99.90;;;;;;5135684;27;20175;-76
2022/07/11 02:25:12;;;;;;;2.27;1.00;;;13.40;99.90;;;;;;5133545;27;20559;-76
2022/07/11 02:27:38;;;;;;;2.47;1.40;;;13.40;99.90;;;;;;5122841;27;20452;-76
2022/07/11 02:30:04;;;;;;;2.83;1.20;;;13.30;99.90;;;;;;5120260;27;20464;-76
2022/07/11 02:32:30;;;;;;;2.00;1.20;;;13.30;99.90;;;;;;5094567;28;20203;-76
2022/07/11 02:34:55;;;;;;;2.70;1.10;;;13.20;99.90;;;;;;5107308;28;20421;-76
2022/07/11 02:37:21;;;;;;;2.83;1.27;;;13.10;99.90;;;;;;5132936;27;20620;-76
2022/07/11 02:39:47;;;;;;;2.33;1.23;;;13.20;99.90;;;;;;5135346;27;20163;-76
2022/07/11 02:42:13;;;;;;;4.13;1.30;;;13.10;99.90;;;;;;5118963;27;20180;-76
2022/07/11 02:44:39;;;;;;;2.00;1.17;;;13.10;99.90;;;;;;5112421;28;20195;-76
2022/07/11 02:47:05;;;;;;;2.90;1.40;;;13.10;99.90;;;;;;5107360;28;20190;-76
2022/07/11 02:49:32;;;;;;;3.33;1.30;;;13.20;99.90;;;;;;5124792;27;20653;-76
2022/07/11 02:51:57;;;;;;;2.77;1.50;;;13.20;99.90;;;;;;5123137;27;20417;-76
2022/07/11 02:54:23;;;;;;;1.67;0.90;;;13.20;99.90;;;;;;5120353;27;20474;-76
2022/07/11 02:56:49;;;;;;;2.43;1.20;;;13.20;99.90;;;;;;5132588;27;20560;-76
2022/07/11 02:59:14;;;;;;;3.30;1.10;;;13.20;99.90;;;;;;5114116;28;20255;-76
2022/07/11 03:01:41;;;;;;;2.43;1.03;;;13.20;99.90;;;;;;5118254;27;20540;-76
2022/07/11 03:04:08;;;;;;;2.00;1.10;;;13.20;99.90;;;;;;5127251;27;20184;-76
2022/07/11 03:06:33;;;;;;;2.13;1.10;;;13.10;99.90;;;;;;5112644;27;20915;-75
2022/07/11 03:08:59;;;;;;;2.03;1.20;;;13.10;99.90;;;;;;5106402;28;20483;-76
2022/07/11 03:11:25;;;;;;;2.20;1.33;;;13.10;99.90;;;;;;5113274;28;20609;-76
2022/07/11 03:13:50;;;;;;;2.63;1.23;;;13.20;99.90;;;;;;5118171;27;21038;-76
2022/07/11 03:16:16;;;;;;;2.30;1.37;;;13.10;99.90;;;;;;5113616;28;20176;-76
2022/07/11 03:18:42;;;;;;;6.60;2.17;;;13.10;99.90;;;;;;5113776;28;20313;-76
2022/07/11 03:21:08;;;;;;;2.80;1.57;;;13.10;99.90;;;;;;5113523;28;20517;-76
2022/07/11 03:23:34;;;;;;;2.67;1.37;;;13.10;99.90;;;;;;5128246;27;20186;-76
2022/07/11 03:26:00;;;;;;;2.20;1.27;;;13.10;99.90;;;;;;5105166;28;20263;-76
2022/07/11 03:28:26;;;;;;;2.40;1.20;;;13.10;99.90;;;;;;5103255;27;20505;-76
2022/07/11 03:30:51;;;;;;;5.10;1.50;;;13.10;99.90;;;;;;5113136;28;20545;-76
2022/07/11 03:33:17;;;;;;;2.87;1.40;;;13.10;99.90;;;;;;5113079;28;20203;-76
2022/07/11 03:35:43;;;;;;;2.23;1.00;;;13.10;99.90;;;;;;5113760;28;20680;-76
2022/07/11 03:38:10;;;;;;;3.53;1.60;;;13.00;99.90;;;;;;5113669;28;20187;-76
2022/07/11 03:40:36;;;;;;;3.20;1.70;;;13.00;99.90;;;;;;5127993;27;20176;-76
2022/07/11 03:43:02;;;;;;;6.43;1.60;;;13.00;99.90;;;;;;5119575;27;20861;-76
2022/07/11 03:45:28;;;;;;;1.87;1.10;;;13.00;99.90;;;;;;5108663;27;20188;-76
2022/07/11 03:47:54;;;;;;;2.10;0.93;;;13.00;99.90;;;;;;5119557;27;20437;-76
2022/07/11 03:50:20;;;;;;;4.33;1.90;;;13.00;99.90;;;;;;5116267;27;20237;-76
2022/07/11 03:52:46;;;;;;;3.87;1.77;;;13.00;99.90;;;;;;5112813;28;20465;-76
2022/07/11 03:55:12;;;;;;;4.53;1.60;;;13.00;99.90;;;;;;5112774;28;20180;-76
2022/07/11 03:57:38;;;;;;;2.27;1.30;;;13.00;99.90;;;;;;5104263;28;20195;-76
2022/07/11 04:00:06;;;;;;;1.70;1.00;;;13.00;99.90;;;;;;5105913;28;20184;-76
2022/07/11 04:02:34;;;;;;;2.23;1.20;;;13.00;99.90;;;;;;5112435;27;20449;-76
2022/07/11 04:05:01;;;;;;;3.50;1.20;;;13.10;99.90;;;;;;5105691;28;20430;-76
2022/07/11 04:07:29;;;;;;;4.10;1.60;;;13.10;99.90;;;;;;5108168;28;20460;-76
2022/07/11 04:09:55;;;;;;;2.57;1.20;;;13.10;99.90;;;;;;5104451;28;20497;-75
2022/07/11 04:12:21;;;;;;;3.90;1.40;;;13.20;99.90;;;;;;5100270;28;20490;-76
2022/07/11 04:14:47;;;;;;;2.97;1.40;;;13.20;99.90;;;;;;5103795;28;20465;-76
2022/07/11 04:17:13;;;;;;;4.77;1.63;;;13.30;99.90;;;;;;5102148;28;20188;-75
2022/07/11 04:19:39;;;;;;;2.20;1.37;;;13.30;99.90;;;;;;5104390;28;20786;-76
2022/07/11 04:22:06;;;;;;;3.10;1.77;;;13.40;99.90;;;;;;5106232;28;20419;-76
2022/07/11 04:24:31;;;;;;;4.90;1.73;;;13.40;99.90;;;;;;5106120;28;20485;-76
2022/07/11 04:26:57;;;;;;;4.57;1.50;;;13.50;99.90;;;;;;5100666;28;20879;-75
2022/07/11 04:29:23;;;;;;;4.30;1.70;;;13.50;99.90;;;;;;5097853;28;20710;-77
2022/07/11 04:31:52;;;;;;;5.87;1.40;;;13.50;99.90;;;;;;5096557;28;20202;-76
2022/07/11 04:34:18;;;;;;;3.00;1.50;;;13.60;99.90;;;;;;5106792;28;20479;-76
2022/07/11 04:36:44;;;;;;;2.23;1.23;;;13.60;99.90;;;;;;5118611;23;20429;-75
2022/07/11 04:39:10;;;;;;;5.13;1.50;;;13.60;99.90;;;;;;5086073;28;20195;-76
2022/07/11 04:41:36;;;;;;;3.20;1.40;;;13.60;99.90;;;;;;5083085;28;20426;-76
2022/07/11 04:44:02;;;;;;;6.83;1.63;;;13.70;99.90;;;;;;5085621;28;20708;-76
2022/07/11 04:46:28;;;;;;;4.10;1.90;;;13.70;99.90;;;;;;5092133;28;20233;-76
2022/07/11 04:48:55;;;;;;;23.97;2.10;;;13.80;99.90;;;;;;5090277;28;20210;-76
2022/07/11 04:51:21;;;;;;;5.07;2.50;;;13.80;99.90;;;;;;5091582;28;20430;-76
2022/07/11 04:53:46;;;;;;;6.03;1.77;;;13.80;99.90;;;;;;5091970;28;20473;-76
2022/07/11 04:56:13;;;;;;;4.37;2.00;;;13.80;99.90;;;;;;5080242;28;20982;-76
2022/07/11 04:58:38;;;;;;;10.83;2.20;;;13.90;99.90;;;;;;5089032;28;20172;-76
2022/07/11 05:01:04;;;;;;;3.40;1.30;;;14.00;99.90;;;;;;5091194;28;20501;-76
2022/07/11 05:03:32;;;;;;;6.03;1.47;;;14.00;99.90;;;;;;5091654;28;20184;-76
2022/07/11 05:05:57;;;;;;;8.83;2.10;;;14.10;99.90;;;;;;5085831;28;20416;-76
2022/07/11 05:08:23;;;;;;;4.77;2.10;;;14.10;99.90;;;;;;5087331;28;20563;-76
2022/07/11 05:10:49;;;;;;;3.37;1.93;;;14.20;99.90;;;;;;5086166;28;20204;-76
2022/07/11 05:13:15;;;;;;;7.30;2.03;;;14.20;99.90;;;;;;5088936;28;20244;-76
2022/07/11 05:15:40;;;;;;;3.30;1.60;;;14.30;99.90;;;;;;5089089;28;20177;-76
2022/07/11 05:18:06;;;;;;;4.37;2.40;;;14.40;99.90;;;;;;5089166;28;20605;-76
2022/07/11 05:20:32;;;;;;;5.57;2.40;;;14.50;99.90;;;;;;5095621;28;20630;-75
2022/07/11 05:22:58;;;;;;;4.80;2.30;;;14.60;99.90;;;;;;5093815;28;20181;-76
2022/07/11 05:25:24;;;;;;;17.50;2.43;;;14.70;99.90;;;;;;5093077;28;20196;-76
2022/07/11 05:27:50;;;;;;;6.10;2.30;;;14.70;99.90;;;;;;5094591;28;20420;-76
2022/07/11 05:30:16;;;;;;;6.00;2.67;;;14.80;99.90;;;;;;5091498;28;20501;-76
2022/07/11 05:32:41;;;;;;;4.40;2.10;;;14.90;99.90;;;;;;5091146;28;20458;-76
2022/07/11 05:35:07;;;;;;;4.17;2.37;;;14.90;99.90;;;;;;5091872;28;20200;-76
2022/07/11 05:37:33;;;;;;;4.17;2.10;;;15.00;99.90;;;;;;5086712;28;20200;-76
2022/07/11 05:39:59;;;;;;;4.50;2.43;;;14.90;99.90;;;;;;5081676;28;20777;-76
2022/07/11 05:42:24;;;;;;;8.10;2.53;;;14.90;99.90;;;;;;5089313;28;20188;-76
2022/07/11 05:44:50;;;;;;;5.73;2.40;;;14.90;99.90;;;;;;5084346;28;20211;-76
2022/07/11 05:47:17;;;;;;;11.27;3.40;;;14.90;99.90;;;;;;5095822;28;20632;-76
2022/07/11 05:49:42;;;;;;;3.60;2.53;;;14.90;99.90;;;;;;5094350;28;20221;-76
2022/07/11 05:52:08;;;;;;;9.53;3.50;;;15.00;99.90;;;;;;5094480;28;20792;-76
2022/07/11 05:54:35;;;;;;;7.47;3.40;;;15.00;99.90;;;;;;5094355;28;20234;-76
2022/07/11 05:57:02;;;;;;;4.63;2.70;;;15.10;99.90;;;;;;5094525;28;20430;-76
2022/07/11 05:59:28;;;;;;;4.97;2.47;;;15.20;99.90;;;;;;5092850;28;20414;-76
2022/07/11 06:01:54;;;;;;;4.63;2.27;;;15.30;99.90;;;;;;5093041;28;20406;-76
2022/07/11 06:04:20;;;;;;;13.23;3.80;;;15.40;99.90;;;;;;5090504;28;20406;-75
2022/07/11 06:06:46;;;;;;;6.60;3.20;;;15.50;99.90;;;;;;5083421;28;20411;-74
2022/07/11 06:09:12;;;;;;;8.93;2.00;;;15.50;99.90;;;;;;5088077;28;20259;-75
2022/07/11 06:11:38;;;;;;;5.63;3.23;;;15.50;99.90;;;;;;5094090;28;20460;-75
2022/07/11 06:14:05;;;;;;;4.23;2.60;;;15.60;99.90;;;;;;5093047;28;20510;-75
2022/07/11 06:16:31;;;;;;;6.30;3.00;;;15.70;99.90;;;;;;5088592;28;20172;-75
2022/07/11 06:18:58;;;;;;;6.47;3.10;;;15.80;99.90;;;;;;5086858;28;20442;-75
2022/07/11 06:21:24;;;;;;;6.30;3.33;;;15.90;99.90;;;;;;5082910;28;20450;-75
2022/07/11 06:23:49;;;;;;;4.67;3.00;;;15.90;99.90;;;;;;5092031;28;20426;-75
2022/07/11 06:26:15;;;;;;;4.70;2.63;;;15.90;99.90;;;;;;5090308;28;20428;-75
2022/07/11 06:28:41;;;;;;;5.20;2.60;;;16.20;99.90;;;;;;5089127;28;20181;-75
2022/07/11 06:31:07;;;;;;;6.30;3.47;;;16.30;99.90;;;;;;5089666;28;20533;-75
2022/07/11 06:33:33;;;;;;;7.37;2.50;;;16.30;99.90;;;;;;5092509;28;20457;-75
2022/07/11 06:35:59;;;;;;;3.60;1.80;;;16.40;99.90;;;;;;5091612;28;20181;-75
2022/07/11 06:38:25;;;;;;;5.10;2.93;;;16.40;99.90;;;;;;5088831;28;20445;-75
2022/07/11 06:40:50;;;;;;;5.50;2.57;;;16.50;99.90;;;;;;5085492;28;20526;-76
2022/07/11 06:43:16;;;;;;;3.60;1.97;;;16.60;99.90;;;;;;5094304;28;20176;-76
2022/07/11 06:45:42;;;;;;;2.90;1.90;;;16.50;99.90;;;;;;5082023;28;20268;-76
2022/07/11 06:48:08;;;;;;;3.37;1.90;;;16.60;99.90;;;;;;5091264;28;20184;-76
2022/07/11 06:50:34;;;;;;;3.73;2.40;;;16.80;99.90;;;;;;5089459;28;20219;-75
2022/07/11 06:52:59;;;;;;;6.00;2.27;;;17.00;99.90;;;;;;5090448;28;20610;-75
2022/07/11 06:55:25;;;;;;;3.23;1.53;;;17.10;99.90;;;;;;5089950;28;20184;-75
2022/07/11 06:57:54;;;;;;;3.20;1.63;;;17.20;99.90;;;;;;5092916;28;20276;-75
2022/07/11 07:00:19;;;;;;;11.30;2.53;;;17.20;99.90;;;;;;5086771;28;20193;-75
2022/07/11 07:02:46;;;;;;;14.80;2.77;;;17.30;99.90;;;;;;5087908;28;20463;-75
2022/07/11 07:05:11;;;;;;;8.10;1.90;;;17.40;99.90;;;;;;5089103;28;20192;-75
2022/07/11 07:07:37;;;;;;;6.33;1.70;;;17.50;99.90;;;;;;5086654;28;20431;-75
2022/07/11 07:10:04;;;;;;;6.47;1.70;;;17.70;99.80;;;;;;5086234;28;20184;-75
2022/07/11 07:12:29;;;;;;;4.90;2.20;;;17.70;99.90;;;;;;5092757;28;20590;-75
2022/07/11 07:14:55;;;;;;;3.70;2.03;;;17.90;99.80;;;;;;5093048;28;20888;-75
2022/07/11 07:17:21;;;;;;;3.40;1.63;;;18.00;99.30;;;;;;5092351;28;20226;-75
2022/07/11 07:19:46;;;;;;;4.07;1.67;;;18.00;99.20;;;;;;5092648;28;20215;-75
2022/07/11 07:22:16;;;;;;;3.90;1.80;;;18.00;99.10;;;;;;5079660;28;20177;-75
2022/07/11 07:24:45;;;;;;;3.90;1.60;;;18.00;99.50;;;;;;5085224;28;20192;-75
2022/07/11 07:27:11;;;;;;;2.90;1.53;;;18.00;99.20;;;;;;5086440;28;20843;-75
2022/07/11 07:29:38;;;;;;;2.83;1.80;;;18.20;98.70;;;;;;5092396;28;20430;-75
2022/07/11 07:32:04;;;;;;;7.47;2.27;;;18.30;98.40;;;;;;5092127;28;20453;-75
2022/07/11 07:34:30;;;;;;;2.90;1.50;;;18.60;98.00;;;;;;5091081;28;20464;-75
2022/07/11 07:36:55;;;;;;;7.63;1.93;;;18.70;97.50;;;;;;5092077;28;20439;-75
2022/07/11 07:39:21;;;;;;;2.23;1.30;;;18.60;97.90;;;;;;5091354;28;20191;-75
2022/07/11 07:41:46;;;;;;;2.90;1.70;;;18.70;97.50;;;;;;5091370;28;20181;-75
2022/07/11 07:44:12;;;;;;;2.57;1.80;;;18.80;97.70;;;;;;5091382;28;20216;-75
2022/07/11 07:46:38;;;;;;;3.90;2.03;;;18.80;97.60;;;;;;5091397;28;20281;-75
2022/07/11 07:49:03;;;;;;;2.80;1.77;;;18.90;97.00;;;;;;5091958;28;20618;-75
2022/07/11 07:51:29;;;;;;;3.03;1.73;;;19.00;96.70;;;;;;5091375;28;20650;-75
2022/07/11 07:53:55;;;;;;;3.43;1.50;;;19.40;96.20;;;;;;5088734;28;20232;-75
2022/07/11 07:56:21;;;;;;;3.70;1.90;;;19.90;95.70;;;;;;5088417;28;20463;-75
2022/07/11 07:58:47;;;;;;;6.40;1.40;;;20.80;94.10;;;;;;5087364;28;20298;-76
2022/07/11 08:03:57;;;;;;;2.90;1.20;;;23.40;90.70;;;;;;5090730;28;20186;-76
2022/07/11 08:06:22;;;;;;;3.03;1.20;;;24.80;84.40;;;;;;5085391;28;20991;-76
2022/07/11 08:08:49;;;;;;;2.70;1.23;;;24.70;81.90;;;;;;5091251;28;20220;-76
2022/07/11 08:11:16;;;;;;;4.33;1.20;;;24.40;83.00;;;;;;5089870;28;20192;-76
2022/07/11 08:13:42;;;;;;;1.80;0.80;;;24.10;82.00;;;;;;5086690;28;20660;-76
2022/07/11 08:16:07;;;;;;;3.80;0.93;;;24.10;83.30;;;;;;5086184;28;20207;-76
2022/07/11 08:18:34;;;;;;;2.78;1.10;;;24.40;81.90;;;;;;5085777;28;20202;-76
2022/07/11 08:21:00;;;;;;;2.28;1.00;;;25.60;80.10;;;;;;5091949;28;20576;-76
2022/07/11 08:23:25;;;;;;;6.75;1.23;;;26.50;74.60;;;;;;5088072;28;20172;-76
2022/07/11 08:25:51;;;;;;;2.70;0.98;;;26.00;74.80;;;;;;5082101;28;20530;-76
2022/07/11 08:28:17;;;;;;;1.98;0.65;;;25.10;78.80;;;;;;5079009;28;20183;-76
2022/07/11 08:30:43;;;;;;;1.50;0.50;;;24.90;76.10;;;;;;5086676;28;20195;-77
2022/07/11 08:33:09;;;;;;;1.67;0.60;;;25.30;75.50;;;;;;5088545;28;20207;-77
2022/07/11 08:35:35;;;;;;;1.60;0.80;;;26.00;72.10;;;;;;5090301;28;20186;-76
2022/07/11 08:38:00;;;;;;;1.70;0.57;;;26.10;70.90;;;;;;5091154;28;20196;-76
2022/07/11 08:40:26;;;;;;;1.50;0.60;;;25.30;70.40;;;;;;5091069;28;20205;-76
2022/07/11 08:42:55;;;;;;;1.40;0.50;;;24.60;72.50;;;;;;5091280;28;20688;-76
2022/07/11 08:45:28;;;;;;;1.50;0.50;;;23.20;74.40;;;;;;5105445;28;20225;-76
2022/07/11 08:47:54;;;;;;;2.60;0.97;;;22.80;77.60;;;;;;5103238;28;20232;-76
2022/07/11 08:50:22;;;;;;;1.77;0.73;;;22.60;78.70;;;;;;5103830;28;20274;-76
2022/07/11 08:52:48;;;;;;;1.70;0.67;;;23.10;76.10;;;;;;5101905;28;20214;-76
2022/07/11 08:55:13;;;;;;;1.90;0.70;;;22.80;76.80;;;;;;5105181;28;20422;-75
2022/07/11 08:57:39;;;;;;;1.50;0.60;;;22.60;77.30;;;;;;5107288;28;20659;-75
2022/07/11 09:00:08;;;;;;;1.40;0.50;;;22.20;79.40;;;;;;5109171;28;20636;-75
2022/07/11 09:02:35;;;;;;;1.40;0.50;;;21.90;77.60;;;;;;5105432;28;20234;-76
2022/07/11 09:05:05;;;;;;;1.70;0.57;;;21.70;79.40;;;;;;5111458;28;20416;-76
2022/07/11 09:07:32;;;;;;;1.80;0.70;;;21.60;82.60;;;;;;5114500;28;20427;-76
2022/07/11 09:09:57;;;;;;;1.80;0.83;;;21.50;80.80;;;;;;5110527;27;20543;-76
2022/07/11 09:12:23;;;;;;;1.50;0.63;;;22.60;79.00;;;;;;5111578;28;21009;-76
2022/07/11 09:14:51;;;;;;;1.70;0.60;;;23.40;78.40;;;;;;5113740;28;20254;-76
2022/07/11 09:17:26;;;;;;;1.60;0.80;;;24.80;73.90;;;;;;5105638;28;20175;-76
2022/07/11 09:19:52;;;;;;;2.03;0.60;;;25.20;72.60;;;;;;5110619;28;20177;-76
2022/07/11 09:27:53;;;;;;;1.50;0.50;;;25.10;72.90;;;;;;5101548;28;20183;-77
2022/07/11 09:30:26;;;;;;;1.50;0.60;;;24.50;74.30;;;;;;5114954;28;20516;-76
2022/07/11 09:32:56;;;;;;;5.47;0.85;;;25.20;72.20;;;;;;5113024;28;20258;-76
2022/07/11 09:35:23;;;;;;;2.25;0.75;;;25.00;73.70;;;;;;5113466;28;20216;-76
2022/07/11 09:37:49;;;;;;;2.15;0.70;;;26.10;69.90;;;;;;5109051;28;20562;-76
2022/07/11 09:40:17;;;;;;;1.50;0.60;;;26.00;69.30;;;;;;5106197;28;20223;-77
2022/07/11 09:42:50;;;;;;;1.73;0.77;;;25.80;69.80;;;;;;5103548;28;20187;-77
2022/07/11 09:45:17;;;;;;;1.48;0.60;;;25.50;71.80;;;;;;5102952;28;20187;-77
2022/07/11 09:47:53;;;;;;;1.92;0.82;;;25.20;72.30;;;;;;5111742;28;20195;-76
2022/07/11 09:50:25;;;;;;;2.38;0.80;;;25.00;72.50;;;;;;5107960;28;20187;-77
2022/07/11 09:53:05;;;;;;;1.88;0.90;;;25.10;74.10;;;;;;5109732;27;20203;-76
2022/07/11 09:55:52;;;;;;;1.40;0.60;;;25.10;72.80;;;;;;5103353;28;20179;-77
2022/07/11 09:58:18;;;;;;;1.80;0.70;;;24.30;73.60;;;;;;5106654;28;20805;-76
2022/07/11 10:00:45;;;;;;;2.47;0.77;;;24.20;74.50;;;;;;5110335;28;20179;-76
2022/07/11 10:03:12;;;;;;;3.00;0.80;;;24.80;70.50;;;;;;5107547;28;20223;-76
2022/07/11 10:05:38;;;;;;;2.53;0.90;;;24.50;73.30;;;;;;5110149;28;20663;-76
2022/07/11 10:08:05;;;;;;;1.60;0.60;;;25.10;70.40;;;;;;5102351;28;20274;-76
2022/07/11 10:10:32;;;;;;;1.50;0.60;;;25.20;71.80;;;;;;5107269;27;20183;-76
2022/07/11 10:12:59;;;;;;;2.50;0.80;;;25.30;70.30;;;;;;5106528;28;20286;-76
2022/07/11 10:15:32;;;;;;;1.90;0.70;;;24.70;75.30;;;;;;5099793;28;20230;-76
2022/07/11 10:18:12;;;;;;;1.90;0.90;;;24.40;72.50;;;;;;5108628;28;20224;-76
2022/07/11 10:20:54;;;;;;;2.83;0.70;;;24.10;73.00;;;;;;5107441;28;21844;-76
2022/07/11 10:23:31;;;;;;;3.80;0.73;;;23.90;73.90;;;;;;5104525;28;20266;-76
2022/07/11 10:26:32;;;;;;;1.60;0.70;;;23.70;75.20;;;;;;5102407;28;20417;-76
2022/07/11 10:29:05;;;;;;;1.70;0.70;;;23.40;75.60;;;;;;5109223;28;20429;-76
2022/07/11 10:31:31;;;;;;;1.70;0.70;;;23.10;77.00;;;;;;5102091;28;20778;-77
2022/07/11 10:34:05;;;;;;;1.63;0.60;;;23.20;75.40;;;;;;5097870;28;20466;-76
2022/07/11 10:36:33;;;;;;;1.63;0.80;;;23.30;75.00;;;;;;5108494;28;20187;-76
2022/07/11 10:39:24;;;;;;;6.13;0.80;;;23.50;73.40;;;;;;5108834;28;20433;-76
2022/07/11 10:41:50;;;;;;;1.67;0.70;;;23.50;74.10;;;;;;5106761;28;20409;-76
2022/07/11 10:44:17;;;;;;;1.70;0.70;;;23.30;74.30;;;;;;5110701;28;20887;-77
2022/07/11 10:46:42;;;;;;;9.33;1.70;;;23.40;73.70;;;;;;5102903;28;20918;-77
2022/07/11 10:49:14;;;;;;;6.53;1.03;;;23.20;75.20;;;;;;5103055;28;20188;-77
2022/07/11 10:51:55;;;;;;;1.60;0.50;;;23.30;75.10;;;;;;5103706;28;20175;-77
2022/07/11 10:54:29;;;;;;;2.17;0.90;;;23.10;76.40;;;;;;5101423;28;20456;-76
2022/07/11 10:57:15;;;;;;;2.17;0.83;;;22.80;77.00;;;;;;5109980;28;20442;-77
2022/07/11 11:00:04;;;;;;;2.57;0.90;;;23.00;76.60;;;;;;5104073;28;20501;-77
2022/07/11 11:02:31;;;;;;;1.40;0.50;;;23.20;76.00;;;;;;5107406;28;20417;-76
2022/07/11 11:04:58;;;;;;;2.90;1.17;;;23.40;75.60;;;;;;5106817;28;20429;-76
2022/07/11 11:07:43;;;;;;;2.47;0.90;;;23.70;76.00;;;;;;5104399;28;20499;-77
2022/07/11 11:10:18;;;;;;;1.80;0.60;;;24.10;74.80;;;;;;5110736;28;20453;-76
2022/07/11 11:13:05;;;;;;;1.80;0.70;;;24.40;73.20;;;;;;5106424;28;20449;-77
2022/07/11 11:15:54;;;;;;;1.67;0.77;;;24.60;72.40;;;;;;5107043;28;20432;-76
2022/07/11 11:18:25;;;;;;;1.53;0.73;;;24.60;71.60;;;;;;5101118;28;20418;-77
2022/07/11 11:21:02;;;;;;;1.57;0.63;;;24.20;73.00;;;;;;5104287;28;20422;-77
2022/07/11 11:23:29;;;;;;;3.13;0.70;;;23.90;73.80;;;;;;5104669;28;20433;-77
2022/07/11 11:25:54;;;;;;;1.90;0.80;;;23.70;75.00;;;;;;5103985;28;20465;-77
2022/07/11 11:28:22;;;;;;;1.50;0.60;;;23.70;74.70;;;;;;5105863;28;21772;-77
2022/07/11 11:30:54;;;;;;;1.97;0.60;;;23.80;74.30;;;;;;5102481;28;20270;-76
2022/07/11 11:33:20;;;;;;;1.50;0.60;;;23.70;74.70;;;;;;5105630;28;20977;-76
2022/07/11 11:36:00;;;;;;;2.23;0.70;;;23.60;74.60;;;;;;5104747;28;20470;-76
2022/07/11 11:38:27;;;;;;;1.50;0.70;;;23.70;74.30;;;;;;5100582;28;20244;-75
2022/07/11 11:40:52;;;;;;;5.50;0.83;;;23.80;72.80;;;;;;5103893;28;20451;-75
2022/07/11 11:43:22;;;;;;;2.07;0.70;;;23.50;74.60;;;;;;5106661;28;21096;-76
2022/07/11 11:45:52;;;;;;;1.90;0.90;;;23.50;75.20;;;;;;5111106;28;20183;-76
2022/07/11 11:48:31;;;;;;;2.40;0.70;;;23.80;74.60;;;;;;5112076;28;20420;-76
2022/07/11 11:51:06;;;;;;;4.80;1.27;;;24.00;76.80;;;;;;5106686;28;20407;-76
2022/07/11 11:53:59;;;;;;;1.50;0.60;;;24.20;73.80;;;;;;5107225;28;20509;-76
2022/07/11 11:56:28;;;;;;;1.93;1.07;;;24.20;75.20;;;;;;5101128;28;20462;-76
2022/07/11 11:59:00;;;;;;;1.60;0.67;;;24.80;73.00;;;;;;5110469;28;20443;-76
2022/07/11 12:01:28;;;;;;;1.60;0.70;;;25.10;72.00;;;;;;5110445;28;20449;-76
2022/07/11 12:03:58;;;;;;;1.60;0.60;;;25.40;70.60;;;;;;5111744;28;20441;-76
2022/07/11 12:06:29;;;;;;;1.73;0.70;;;25.00;71.40;;;;;;5099314;28;20727;-75
2022/07/11 12:09:11;;;;;;;2.50;0.97;;;24.80;73.10;;;;;;5109034;28;20449;-75
2022/07/11 12:11:43;;;;;;;1.40;0.50;;;25.00;71.00;;;;;;5105954;28;20505;-75
2022/07/11 12:14:10;;;;;;;1.50;0.60;;;24.90;70.90;;;;;;5107467;28;20694;-75
2022/07/11 12:16:46;;;;;;;2.43;1.10;;;24.60;71.50;;;;;;5104816;28;20473;-75
2022/07/11 12:19:16;;;;;;;2.10;0.70;;;24.00;73.40;;;;;;5106686;28;20513;-75
2022/07/11 12:21:47;;;;;;;2.10;0.90;;;24.20;72.20;;;;;;5103413;28;20921;-75
2022/07/11 12:24:20;;;;;;;1.83;0.90;;;23.70;74.70;;;;;;5107832;28;20431;-75
2022/07/11 12:26:47;;;;;;;5.53;1.23;;;23.60;75.30;;;;;;5107290;28;20417;-76
2022/07/11 12:29:19;;;;;;;2.00;0.90;;;24.10;75.20;;;;;;5100239;28;20515;-76
2022/07/11 12:31:44;;;;;;;1.73;0.83;;;24.60;72.50;;;;;;5105078;28;20774;-76
2022/07/11 12:34:11;;;;;;;2.40;1.30;;;25.00;70.40;;;;;;5104098;28;20471;-75
2022/07/11 12:36:37;;;;;;;1.80;0.97;;;25.20;70.90;;;;;;5106179;28;20179;-75
2022/07/11 12:39:04;;;;;;;2.53;0.87;;;24.90;72.10;;;;;;5105889;28;20778;-75
2022/07/11 12:41:30;;;;;;;1.60;0.70;;;24.80;72.00;;;;;;5108040;28;20637;-75
2022/07/11 12:46:42;;;;;;;8.60;0.90;;;24.80;73.20;;;;;;5111998;28;20410;-75
2022/07/11 12:49:09;;;;;;;2.47;0.80;;;25.10;72.40;;;;;;5110393;28;20420;-76
2022/07/11 12:51:44;;;;;;;2.53;1.00;;;25.10;72.40;;;;;;5107291;28;20425;-76
2022/07/11 12:54:14;;;;;;;3.30;1.00;;;25.40;70.40;;;;;;5096469;28;20461;-76
2022/07/11 12:56:52;;;;;;;2.90;1.00;;;24.70;72.30;;;;;;5104967;28;20428;-76
2022/07/11 12:59:20;;;;;;;1.83;0.73;;;24.60;75.30;;;;;;5108131;28;20409;-76
2022/07/11 13:01:56;;;;;;;1.63;0.60;;;24.30;73.80;;;;;;5103947;28;20520;-76